createdAt,value
2022-10-19T00:00:53.551Z,1010.2
2022-10-19T00:02:12.035Z,1010.1
2022-10-19T00:03:24.711Z,1010.2
2022-10-19T00:04:40.904Z,1010.1
2022-10-19T00:05:57.346Z,1010.1
2022-10-19T00:06:40.000Z,1010.1
2022-10-19T00:07:13.291Z,1010.2
2022-10-19T00:09:12.000Z,1010.1
2022-10-19T00:09:45.679Z,1010.1
2022-10-19T00:10:27.000Z,1010.1
2022-10-19T00:11:42.000Z,1010.1
2022-10-19T00:12:59.000Z,1010
2022-10-19T00:14:15.000Z,1010.1
2022-10-19T00:15:31.000Z,1010.1
2022-10-19T00:18:03.000Z,1010
2022-10-19T00:18:37.327Z,1010
2022-10-19T00:20:36.000Z,1010
2022-10-19T00:21:09.708Z,1010
2022-10-19T00:23:41.852Z,1010
2022-10-19T00:24:58.290Z,1010
2022-10-19T00:26:14.239Z,1010
2022-10-19T00:27:30.433Z,1010
2022-10-19T00:28:46.626Z,1010
2022-10-19T00:29:28.000Z,1009.9
2022-10-19T00:30:01.836Z,1010
2022-10-19T00:32:34.224Z,1010
2022-10-19T00:33:17.000Z,1010
2022-10-19T00:33:50.417Z,1010
2022-10-19T00:34:33.000Z,1010
2022-10-19T00:35:49.000Z,1010
2022-10-19T00:37:04.000Z,1010.1
2022-10-19T00:38:20.000Z,1010.1
2022-10-19T00:40:50.000Z,1010
2022-10-19T00:41:24.650Z,1010.1
2022-10-19T00:43:56.053Z,1010
2022-10-19T00:44:39.000Z,1010.1
2022-10-19T00:45:12.499Z,1010.1
2022-10-19T00:47:11.000Z,1010.1
2022-10-19T00:47:44.636Z,1010.1
2022-10-19T00:50:17.023Z,1010.1
2022-10-19T00:51:33.217Z,1010.1
2022-10-19T00:52:49.410Z,1010.2
2022-10-19T00:54:48.000Z,1010.2
2022-10-19T00:55:03.870Z,1010.1
2022-10-19T00:55:22.043Z,1010.2
2022-10-19T00:57:54.186Z,1010.2
2022-10-19T00:59:09.396Z,1010.2
2022-10-19T00:59:52.000Z,1010.2
2022-10-19T01:00:43.819Z,1010.2
2022-10-19T01:02:24.000Z,1010.1
2022-10-19T01:02:58.225Z,1010.2
2022-10-19T01:04:57.000Z,1010.2
2022-10-19T01:05:30.364Z,1010.1
2022-10-19T01:06:12.000Z,1010.1
2022-10-19T01:07:27.000Z,1010.1
2022-10-19T01:09:58.000Z,1010.2
2022-10-19T01:10:32.208Z,1010.2
2022-10-19T01:11:13.000Z,1010.2
2022-10-19T01:12:28.000Z,1010.2
2022-10-19T01:14:59.000Z,1010.1
2022-10-19T01:15:34.044Z,1010.2
2022-10-19T01:16:15.000Z,1010.1
2022-10-19T01:18:47.000Z,1010.1
2022-10-19T01:19:20.917Z,1010.1
2022-10-19T01:20:03.000Z,1010.1
2022-10-19T01:21:19.000Z,1010.1
2022-10-19T01:22:36.000Z,1010
2022-10-19T01:23:52.000Z,1010
2022-10-19T01:25:08.000Z,1010
2022-10-19T01:26:24.000Z,1010
2022-10-19T01:27:40.000Z,1010
2022-10-19T01:28:57.000Z,1010
2022-10-19T01:30:13.000Z,1010
2022-10-19T01:32:44.000Z,1010
2022-10-19T01:33:29.854Z,1010
2022-10-19T01:34:00.000Z,1009.9
2022-10-19T01:36:32.000Z,1009.9
2022-10-19T01:38:03.458Z,1010
2022-10-19T01:39:04.000Z,1009.9
2022-10-19T01:40:07.829Z,1009.9
2022-10-19T01:42:10.433Z,1009.9
2022-10-19T01:43:43.415Z,1009.9
2022-10-19T01:44:07.000Z,1009.9
2022-10-19T01:44:40.865Z,1009.9
2022-10-19T01:45:23.000Z,1009.9
2022-10-19T01:47:55.000Z,1009.8
2022-10-19T01:48:29.454Z,1009.9
2022-10-19T01:50:28.000Z,1009.8
2022-10-19T01:51:55.557Z,1009.8
2022-10-19T01:53:34.221Z,1009.8
2022-10-19T01:54:16.000Z,1009.7
2022-10-19T01:54:50.171Z,1009.8
2022-10-19T01:56:49.000Z,1009.7
2022-10-19T01:57:22.558Z,1009.7
2022-10-19T01:58:05.000Z,1009.7
2022-10-19T02:00:36.000Z,1009.7
2022-10-19T02:01:10.155Z,1009.7
2022-10-19T02:01:53.000Z,1009.7
2022-10-19T02:03:09.000Z,1009.7
2022-10-19T02:04:25.000Z,1009.7
2022-10-19T02:07:55.003Z,1009.7
2022-10-19T02:08:47.320Z,1009.6
2022-10-19T02:09:28.000Z,1009.6
2022-10-19T02:10:02.790Z,1009.6
2022-10-19T02:12:33.222Z,1009.6
2022-10-19T02:13:48.424Z,1009.6
2022-10-19T02:15:03.653Z,1009.5
2022-10-19T02:15:45.000Z,1009.5
2022-10-19T02:16:18.612Z,1009.6
2022-10-19T02:18:50.999Z,1009.5
2022-10-19T02:20:07.437Z,1009.5
2022-10-19T02:21:23.634Z,1009.5
2022-10-19T02:23:11.379Z,1009.5
2022-10-19T02:23:22.000Z,1009.6
2022-10-19T02:23:55.775Z,1009.5
2022-10-19T02:26:48.940Z,1009.5
2022-10-19T02:27:44.610Z,1009.5
2022-10-19T02:29:00.803Z,1009.5
2022-10-19T02:29:43.000Z,1009.5
2022-10-19T02:30:16.995Z,1009.5
2022-10-19T02:32:48.147Z,1009.5
2022-10-19T02:35:01.079Z,1009.5
2022-10-19T02:35:20.535Z,1009.5
2022-10-19T02:36:03.000Z,1009.5
2022-10-19T02:37:05.450Z,1009.5
2022-10-19T02:39:09.116Z,1009.5
2022-10-19T02:40:25.570Z,1009.5
2022-10-19T02:41:40.775Z,1009.5
2022-10-19T02:42:55.740Z,1009.5
2022-10-19T02:44:11.206Z,1009.5
2022-10-19T02:44:52.000Z,1009.5
2022-10-19T02:45:26.418Z,1009.5
2022-10-19T02:46:09.000Z,1009.5
2022-10-19T02:47:25.000Z,1009.5
2022-10-19T02:49:57.000Z,1009.5
2022-10-19T02:50:30.944Z,1009.5
2022-10-19T02:51:13.000Z,1009.5
2022-10-19T02:54:19.766Z,1009.5
2022-10-19T02:55:02.000Z,1009.5
2022-10-19T02:55:35.961Z,1009.4
2022-10-19T02:57:34.000Z,1009.5
2022-10-19T02:58:08.106Z,1009.4
2022-10-19T02:58:51.000Z,1009.4
2022-10-19T03:01:22.000Z,1009.5
2022-10-19T03:01:55.708Z,1009.5
2022-10-19T03:02:38.000Z,1009.4
2022-10-19T03:05:11.000Z,1009.4
2022-10-19T03:05:44.539Z,1009.5
2022-10-19T03:08:16.927Z,1009.4
2022-10-19T03:09:33.131Z,1009.4
2022-10-19T03:10:13.000Z,1009.4
2022-10-19T03:10:48.346Z,1009.4
2022-10-19T03:12:46.000Z,1009.3
2022-10-19T03:13:19.505Z,1009.3
2022-10-19T03:14:02.000Z,1009.3
2022-10-19T03:17:08.337Z,1009.3
2022-10-19T03:18:40.787Z,1009.3
2022-10-19T03:19:07.000Z,1009.2
2022-10-19T03:20:12.976Z,1009.2
2022-10-19T03:21:39.000Z,1009.2
2022-10-19T03:22:13.120Z,1009.2
2022-10-19T03:22:55.000Z,1009.2
2022-10-19T03:26:01.701Z,1009.2
2022-10-19T03:27:17.652Z,1009.2
2022-10-19T03:27:59.000Z,1009.3
2022-10-19T03:28:33.108Z,1009.2
2022-10-19T03:31:05.255Z,1009.2
2022-10-19T03:32:34.878Z,1009.3
2022-10-19T03:33:04.000Z,1009.2
2022-10-19T03:33:37.891Z,1009.3
2022-10-19T03:34:20.000Z,1009.3
2022-10-19T03:37:25.510Z,1009.2
2022-10-19T03:38:40.718Z,1009.2
2022-10-19T03:39:55.936Z,1009.2
2022-10-19T03:41:11.145Z,1009.2
2022-10-19T03:42:27.099Z,1009.3
2022-10-19T03:43:43.545Z,1009.2
2022-10-19T03:44:26.000Z,1009.3
2022-10-19T03:44:59.743Z,1009.3
2022-10-19T03:46:58.000Z,1009.3
2022-10-19T03:47:32.129Z,1009.3
2022-10-19T03:50:04.273Z,1009.3
2022-10-19T03:50:47.000Z,1009.3
2022-10-19T03:51:20.715Z,1009.3
2022-10-19T03:52:03.000Z,1009.3
2022-10-19T03:53:19.000Z,1009.3
2022-10-19T03:55:51.000Z,1009.3
2022-10-19T03:56:42.553Z,1009.3
2022-10-19T03:58:23.000Z,1009.3
2022-10-19T03:58:56.659Z,1009.3
2022-10-19T03:59:39.000Z,1009.3
2022-10-19T04:02:12.000Z,1009.3
2022-10-19T04:03:22.516Z,1009.3
2022-10-19T04:03:28.000Z,1009.3
2022-10-19T04:05:58.000Z,1009.2
2022-10-19T04:06:32.859Z,1009.2
2022-10-19T04:07:14.000Z,1009.2
2022-10-19T04:08:31.000Z,1009.3
2022-10-19T04:09:47.000Z,1009.3
2022-10-19T04:12:19.000Z,1009.3
2022-10-19T04:12:53.101Z,1009.2
2022-10-19T04:13:35.000Z,1009.2
2022-10-19T04:14:52.000Z,1009.3
2022-10-19T04:16:08.000Z,1009.2
2022-10-19T04:19:13.832Z,1009.2
2022-10-19T04:20:30.027Z,1009.2
2022-10-19T04:21:12.000Z,1009.3
2022-10-19T04:21:46.471Z,1009.3
2022-10-19T04:24:26.786Z,1009.3
2022-10-19T04:25:00.000Z,1009.3
2022-10-19T04:25:33.826Z,1009.3
2022-10-19T04:26:16.000Z,1009.3
2022-10-19T04:27:32.000Z,1009.3
2022-10-19T04:28:49.000Z,1009.3
2022-10-19T04:30:05.000Z,1009.3
2022-10-19T04:31:20.000Z,1009.3
2022-10-19T04:32:35.000Z,1009.3
2022-10-19T04:33:51.000Z,1009.3
2022-10-19T04:36:55.921Z,1009.3
2022-10-19T04:38:11.137Z,1009.4
2022-10-19T04:38:52.000Z,1009.4
2022-10-19T04:39:26.106Z,1009.3
2022-10-19T04:40:09.000Z,1009.3
2022-10-19T04:42:41.000Z,1009.3
2022-10-19T04:43:14.691Z,1009.3
2022-10-19T04:45:13.000Z,1009.3
2022-10-19T04:45:47.083Z,1009.3
2022-10-19T04:48:19.474Z,1009.3
2022-10-19T04:49:02.000Z,1009.3
2022-10-19T04:49:35.915Z,1009.3
2022-10-19T04:51:34.000Z,1009.3
2022-10-19T04:52:08.061Z,1009.3
2022-10-19T04:54:40.699Z,1009.4
2022-10-19T04:56:38.000Z,1009.3
2022-10-19T04:56:42.657Z,1009.3
2022-10-19T04:57:12.104Z,1009.3
2022-10-19T04:59:11.000Z,1009.3
2022-10-19T04:59:44.251Z,1009.3
2022-10-19T05:01:43.000Z,1009.4
2022-10-19T05:02:16.883Z,1009.4
2022-10-19T05:02:58.000Z,1009.3
2022-10-19T05:04:13.000Z,1009.3
2022-10-19T05:07:18.735Z,1009.3
2022-10-19T05:08:33.706Z,1009.3
2022-10-19T05:09:16.000Z,1009.2
2022-10-19T05:09:50.143Z,1009.2
2022-10-19T05:10:32.000Z,1009.3
2022-10-19T05:11:49.000Z,1009.3
2022-10-19T05:14:21.000Z,1009.3
2022-10-19T05:14:54.685Z,1009.3
2022-10-19T05:15:37.000Z,1009.3
2022-10-19T05:16:53.000Z,1009.3
2022-10-19T05:19:26.000Z,1009.3
2022-10-19T05:19:59.468Z,1009.3
2022-10-19T05:20:42.000Z,1009.2
2022-10-19T05:21:58.000Z,1009.2
2022-10-19T05:25:03.511Z,1009.1
2022-10-19T05:25:46.000Z,1009.2
2022-10-19T05:26:19.461Z,1009.2
2022-10-19T05:27:02.000Z,1009.1
2022-10-19T05:29:34.000Z,1009.1
2022-10-19T05:30:08.048Z,1009.2
2022-10-19T05:32:06.000Z,1009.2
2022-10-19T05:32:40.680Z,1009.2
2022-10-19T05:33:21.000Z,1009.2
2022-10-19T05:34:36.000Z,1009.1
2022-10-19T05:37:08.000Z,1009.1
2022-10-19T05:37:41.544Z,1009.1
2022-10-19T05:40:13.697Z,1009.2
2022-10-19T05:40:56.000Z,1009.1
2022-10-19T05:41:30.137Z,1009.2
2022-10-19T05:42:12.000Z,1009.2
2022-10-19T05:45:18.718Z,1009.2
2022-10-19T05:47:00.401Z,1009.2
2022-10-19T05:47:50.871Z,1009.1
2022-10-19T05:49:07.066Z,1009.1
2022-10-19T05:49:49.000Z,1009.1
2022-10-19T05:50:23.510Z,1009.2
2022-10-19T05:52:54.675Z,1009.2
2022-10-19T05:53:37.000Z,1009.2
2022-10-19T05:54:11.112Z,1009.1
2022-10-19T05:56:43.261Z,1009.1
2022-10-19T05:57:59.697Z,1009.1
2022-10-19T05:59:22.311Z,1009.1
2022-10-19T05:59:58.000Z,1009.1
2022-10-19T06:00:32.093Z,1009.1
2022-10-19T06:01:13.000Z,1009.1
2022-10-19T06:04:28.110Z,1009
2022-10-19T06:05:33.949Z,1009
2022-10-19T06:06:49.157Z,1009
2022-10-19T06:07:31.000Z,1009
2022-10-19T06:08:05.108Z,1009
2022-10-19T06:08:48.000Z,1009
2022-10-19T06:10:04.000Z,1009
2022-10-19T06:13:10.141Z,1009
2022-10-19T06:13:52.000Z,1009
2022-10-19T06:14:43.666Z,1009
2022-10-19T06:16:25.000Z,1009.1
2022-10-19T06:16:58.477Z,1009
2022-10-19T06:17:41.000Z,1009
2022-10-19T06:20:13.000Z,1009
2022-10-19T06:21:24.614Z,1009.1
2022-10-19T06:23:18.472Z,1009.1
2022-10-19T06:24:01.000Z,1009.1
2022-10-19T06:25:00.196Z,1009.1
2022-10-19T06:25:17.000Z,1009.1
2022-10-19T06:26:33.000Z,1009.1
2022-10-19T06:29:39.691Z,1009.1
2022-10-19T06:30:21.000Z,1009.2
2022-10-19T06:30:55.646Z,1009.2
2022-10-19T06:31:36.000Z,1009.1
2022-10-19T06:34:42.528Z,1009.2
2022-10-19T06:35:58.717Z,1009.2
2022-10-19T06:37:13.943Z,1009.2
2022-10-19T06:38:28.905Z,1009.2
2022-10-19T06:39:11.000Z,1009.2
2022-10-19T06:40:21.549Z,1009.2
2022-10-19T06:41:44.000Z,1009.3
2022-10-19T06:42:25.925Z,1009.2
2022-10-19T06:43:00.000Z,1009.2
2022-10-19T06:44:16.000Z,1009.3
2022-10-19T06:46:49.000Z,1009.3
2022-10-19T06:47:35.682Z,1009.3
2022-10-19T06:49:54.665Z,1009.3
2022-10-19T06:51:11.107Z,1009.3
2022-10-19T06:52:27.303Z,1009.3
2022-10-19T06:53:43.253Z,1009.2
2022-10-19T06:54:25.000Z,1009.2
2022-10-19T06:54:58.704Z,1009.3
2022-10-19T06:57:31.098Z,1009.2
2022-10-19T06:58:13.000Z,1009.2
2022-10-19T06:58:47.051Z,1009.2
2022-10-19T07:01:19.687Z,1009.2
2022-10-19T07:03:01.967Z,1009.2
2022-10-19T07:03:51.104Z,1009.1
2022-10-19T07:05:06.318Z,1009.1
2022-10-19T07:05:49.000Z,1009.1
2022-10-19T07:06:35.577Z,1009.1
2022-10-19T07:07:05.000Z,1009.1
2022-10-19T07:08:21.000Z,1009.1
2022-10-19T07:11:27.291Z,1009.1
2022-10-19T07:12:43.246Z,1009.1
2022-10-19T07:13:26.000Z,1009.1
2022-10-19T07:14:49.713Z,1009.1
2022-10-19T07:15:58.000Z,1009.1
2022-10-19T07:16:31.833Z,1009.1
2022-10-19T07:17:14.000Z,1009.1
2022-10-19T07:20:31.654Z,1009.2
2022-10-19T07:21:35.868Z,1009.1
2022-10-19T07:22:18.000Z,1009.2
2022-10-19T07:22:52.071Z,1009.2
2022-10-19T07:24:50.000Z,1009.3
2022-10-19T07:25:24.461Z,1009.2
2022-10-19T07:26:07.000Z,1009.2
2022-10-19T07:27:23.000Z,1009.2
2022-10-19T07:28:38.000Z,1009.3
2022-10-19T07:29:53.000Z,1009.2
2022-10-19T07:31:09.000Z,1009.3
2022-10-19T07:32:24.000Z,1009.3
2022-10-19T07:35:30.122Z,1009.2
2022-10-19T07:36:11.000Z,1009.2
2022-10-19T07:36:46.064Z,1009.2
2022-10-19T07:39:16.744Z,1009.2
2022-10-19T07:39:59.000Z,1009.1
2022-10-19T07:40:32.936Z,1009.2
2022-10-19T07:41:15.000Z,1009.1
2022-10-19T07:42:31.000Z,1009.1
2022-10-19T07:45:04.000Z,1009.2
2022-10-19T07:45:37.718Z,1009.1
2022-10-19T07:46:20.000Z,1009.1
2022-10-19T07:49:26.065Z,1009.1
2022-10-19T07:50:08.000Z,1009.1
2022-10-19T07:50:42.260Z,1009.1
2022-10-19T07:52:41.000Z,1009.1
2022-10-19T07:53:14.651Z,1009.1
2022-10-19T07:53:56.000Z,1009
2022-10-19T07:57:02.256Z,1009.1
2022-10-19T07:57:45.000Z,1009.1
2022-10-19T07:58:27.488Z,1009
2022-10-19T08:00:51.091Z,1009.1
2022-10-19T08:02:07.039Z,1009.1
2022-10-19T08:02:48.000Z,1009.2
2022-10-19T08:03:37.244Z,1009.1
2022-10-19T08:05:19.000Z,1009.1
2022-10-19T08:05:53.668Z,1009.1
2022-10-19T08:06:34.000Z,1009.1
2022-10-19T08:09:07.000Z,1009.1
2022-10-19T08:09:40.542Z,1009.1
2022-10-19T08:11:39.000Z,1009
2022-10-19T08:12:12.689Z,1009.1
2022-10-19T08:15:21.032Z,1009.1
2022-10-19T08:15:28.000Z,1009.1
2022-10-19T08:16:01.275Z,1009.1
2022-10-19T08:16:44.000Z,1009.1
2022-10-19T08:18:00.000Z,1009.2
2022-10-19T08:20:32.000Z,1009.1
2022-10-19T08:21:06.058Z,1009.1
2022-10-19T08:24:07.354Z,1009.1
2022-10-19T08:24:53.662Z,1009.1
2022-10-19T08:26:10.107Z,1009.1
2022-10-19T08:27:26.297Z,1009
2022-10-19T08:28:08.000Z,1009.1
2022-10-19T08:29:15.127Z,1009.1
2022-10-19T08:31:14.640Z,1009.1
2022-10-19T08:32:30.836Z,1009.1
2022-10-19T08:33:11.000Z,1009
2022-10-19T08:34:21.911Z,1009.1
2022-10-19T08:34:27.000Z,1009
2022-10-19T08:35:43.000Z,1009.1
2022-10-19T08:36:58.000Z,1009
2022-10-19T08:40:04.342Z,1009
2022-10-19T08:40:47.000Z,1008.9
2022-10-19T08:41:20.291Z,1009
2022-10-19T08:43:19.000Z,1008.8
2022-10-19T08:43:52.925Z,1008.9
2022-10-19T08:44:35.000Z,1008.9
2022-10-19T08:45:51.000Z,1008.9
2022-10-19T08:48:24.000Z,1008.8
2022-10-19T08:48:57.464Z,1008.8
2022-10-19T08:51:29.856Z,1008.8
2022-10-19T08:52:46.299Z,1008.7
2022-10-19T08:53:27.000Z,1008.7
2022-10-19T08:54:02.492Z,1008.8
2022-10-19T08:56:00.000Z,1008.7
2022-10-19T08:56:57.384Z,1008.7
2022-10-19T09:00:01.765Z,1008.7
2022-10-19T09:00:22.506Z,1008.6
2022-10-19T09:02:07.141Z,1008.7
2022-10-19T09:02:20.000Z,1008.7
2022-10-19T09:02:54.636Z,1008.7
2022-10-19T09:03:35.000Z,1008.7
2022-10-19T09:06:40.535Z,1008.7
2022-10-19T09:07:22.000Z,1008.8
2022-10-19T09:07:55.503Z,1008.7
2022-10-19T09:09:54.000Z,1008.8
2022-10-19T09:10:28.140Z,1008.8
2022-10-19T09:11:10.000Z,1008.8
2022-10-19T09:12:26.000Z,1008.7
2022-10-19T09:15:32.926Z,1008.7
2022-10-19T09:16:49.120Z,1008.7
2022-10-19T09:18:05.323Z,1008.7
2022-10-19T09:18:47.000Z,1008.7
2022-10-19T09:19:32.871Z,1008.7
2022-10-19T09:20:04.000Z,1008.7
2022-10-19T09:21:20.000Z,1008.8
2022-10-19T09:22:35.000Z,1008.6
2022-10-19T09:23:51.000Z,1008.6
2022-10-19T09:26:57.454Z,1008.6
2022-10-19T09:27:40.000Z,1008.6
2022-10-19T09:28:13.903Z,1008.6
2022-10-19T09:28:56.000Z,1008.6
2022-10-19T09:32:02.484Z,1008.6
2022-10-19T09:33:17.459Z,1008.5
2022-10-19T09:33:58.000Z,1008.6
2022-10-19T09:34:32.909Z,1008.5
2022-10-19T09:35:13.000Z,1008.6
2022-10-19T09:36:29.000Z,1008.6
2022-10-19T09:39:02.000Z,1008.5
2022-10-19T09:39:35.496Z,1008.6
2022-10-19T09:40:18.000Z,1008.5
2022-10-19T09:41:34.000Z,1008.5
2022-10-19T09:42:50.000Z,1008.5
2022-10-19T09:45:23.000Z,1008.5
2022-10-19T09:45:56.725Z,1008.5
2022-10-19T09:47:55.000Z,1008.5
2022-10-19T09:48:28.866Z,1008.5
2022-10-19T09:51:01.517Z,1008.4
2022-10-19T09:52:58.321Z,1008.4
2022-10-19T09:53:32.904Z,1008.4
2022-10-19T09:54:49.109Z,1008.5
2022-10-19T09:55:31.000Z,1008.4
2022-10-19T09:56:05.056Z,1008.4
2022-10-19T09:58:37.695Z,1008.4
2022-10-19T09:59:20.000Z,1008.4
2022-10-19T09:59:53.882Z,1008.5
2022-10-19T10:00:35.000Z,1008.4
2022-10-19T10:03:40.519Z,1008.4
2022-10-19T10:04:21.000Z,1008.4
2022-10-19T10:04:55.744Z,1008.4
2022-10-19T10:05:37.000Z,1008.3
2022-10-19T10:06:53.000Z,1008.4
2022-10-19T10:08:09.000Z,1008.3
2022-10-19T10:10:42.000Z,1008.4
2022-10-19T10:11:15.494Z,1008.3
2022-10-19T10:13:14.000Z,1008.3
2022-10-19T10:13:48.135Z,1008.4
2022-10-19T10:14:30.000Z,1008.3
2022-10-19T10:17:36.473Z,1008.3
2022-10-19T10:18:19.000Z,1008.3
2022-10-19T10:18:52.916Z,1008.3
2022-10-19T10:21:25.061Z,1008.4
2022-10-19T10:22:06.000Z,1008.4
2022-10-19T10:22:40.532Z,1008.4
2022-10-19T10:25:48.343Z,1008.4
2022-10-19T10:25:55.000Z,1008.5
2022-10-19T10:26:29.103Z,1008.4
2022-10-19T10:27:11.000Z,1008.3
2022-10-19T10:28:27.000Z,1008.4
2022-10-19T10:29:43.000Z,1008.3
2022-10-19T10:32:13.000Z,1008.3
2022-10-19T10:32:47.884Z,1008.3
2022-10-19T10:35:18.563Z,1008.3
2022-10-19T10:36:01.000Z,1008.3
2022-10-19T10:39:06.906Z,1008.3
2022-10-19T10:39:49.000Z,1008.2
2022-10-19T10:40:23.101Z,1008.2
2022-10-19T10:42:22.000Z,1008.2
2022-10-19T10:42:55.746Z,1008.2
2022-10-19T10:45:27.886Z,1008.2
2022-10-19T10:46:44.343Z,1008.2
2022-10-19T10:48:00.278Z,1008.2
2022-10-19T10:48:43.000Z,1008.2
2022-10-19T10:49:16.474Z,1008.2
2022-10-19T10:51:14.000Z,1008.1
2022-10-19T10:51:47.883Z,1008.2
2022-10-19T10:53:46.000Z,1008
2022-10-19T10:54:20.528Z,1008.1
2022-10-19T10:56:19.000Z,1008
2022-10-19T10:56:52.667Z,1008
2022-10-19T10:57:35.000Z,1008
2022-10-19T11:00:41.255Z,1008
2022-10-19T11:01:56.724Z,1008
2022-10-19T11:03:11.689Z,1008
2022-10-19T11:03:52.000Z,1007.9
2022-10-19T11:04:26.913Z,1008
2022-10-19T11:06:58.563Z,1007.9
2022-10-19T11:07:41.000Z,1007.8
2022-10-19T11:08:14.764Z,1007.8
2022-10-19T11:10:46.907Z,1007.8
2022-10-19T11:11:29.000Z,1007.8
2022-10-19T11:12:03.103Z,1007.8
2022-10-19T11:12:45.000Z,1007.8
2022-10-19T11:15:18.000Z,1007.8
2022-10-19T11:15:51.689Z,1007.7
2022-10-19T11:17:50.000Z,1007.7
2022-10-19T11:18:24.080Z,1007.7
2022-10-19T11:20:56.721Z,1007.6
2022-10-19T11:21:38.000Z,1007.7
2022-10-19T11:22:11.930Z,1007.7
2022-10-19T11:22:54.000Z,1007.6
2022-10-19T11:24:10.000Z,1007.6
2022-10-19T11:26:43.000Z,1007.6
2022-10-19T11:27:16.468Z,1007.6
2022-10-19T11:27:59.000Z,1007.6
2022-10-19T11:31:04.328Z,1007.5
2022-10-19T11:31:44.000Z,1007.5
2022-10-19T11:32:19.536Z,1007.4
2022-10-19T11:34:49.968Z,1007.4
2022-10-19T11:35:32.000Z,1007.4
2022-10-19T11:36:06.162Z,1007.4
2022-10-19T11:38:38.556Z,1007.4
2022-10-19T11:39:54.509Z,1007.4
2022-10-19T11:41:10.953Z,1007.3
2022-10-19T11:41:53.000Z,1007.4
2022-10-19T11:42:26.900Z,1007.4
2022-10-19T11:43:09.000Z,1007.4
2022-10-19T11:44:25.000Z,1007.4
2022-10-19T11:47:31.683Z,1007.4
2022-10-19T11:48:48.119Z,1007.4
2022-10-19T11:50:04.335Z,1007.4
2022-10-19T11:50:45.000Z,1007.3
2022-10-19T11:51:19.535Z,1007.3
2022-10-19T11:52:02.000Z,1007.3
2022-10-19T11:53:18.000Z,1007.3
2022-10-19T11:56:24.310Z,1007.2
2022-10-19T11:57:40.507Z,1007.2
2022-10-19T11:58:22.000Z,1007.2
2022-10-19T11:58:56.703Z,1007.2
2022-10-19T12:01:26.896Z,1007.2
2022-10-19T12:02:08.000Z,1007.2
2022-10-19T12:02:43.332Z,1007.2
2022-10-19T12:04:40.000Z,1007.1
2022-10-19T12:05:13.764Z,1007.1
2022-10-19T12:07:12.000Z,1007
2022-10-19T12:07:46.163Z,1007.1
2022-10-19T12:10:18.309Z,1007
2022-10-19T12:11:34.748Z,1007
2022-10-19T12:12:50.701Z,1006.9
2022-10-19T12:13:33.000Z,1006.9
2022-10-19T12:14:07.141Z,1006.8
2022-10-19T12:16:39.535Z,1006.8
2022-10-19T12:17:22.000Z,1006.8
2022-10-19T12:17:55.730Z,1006.8
2022-10-19T12:20:28.118Z,1006.8
2022-10-19T12:21:09.000Z,1006.8
2022-10-19T12:21:43.327Z,1006.8
2022-10-19T12:24:15.726Z,1006.8
2022-10-19T12:25:31.927Z,1006.8
2022-10-19T12:26:47.870Z,1006.7
2022-10-19T12:27:30.000Z,1006.7
2022-10-19T12:28:04.066Z,1006.7
2022-10-19T12:28:45.000Z,1006.6
2022-10-19T12:31:17.000Z,1006.6
2022-10-19T12:31:50.946Z,1006.7
2022-10-19T12:32:33.000Z,1006.6
2022-10-19T12:33:49.000Z,1006.6
2022-10-19T12:36:22.000Z,1006.5
2022-10-19T12:36:55.711Z,1006.5
2022-10-19T12:37:38.000Z,1006.4
2022-10-19T12:38:54.000Z,1006.4
2022-10-19T12:40:10.000Z,1006.4
2022-10-19T12:43:16.436Z,1006.4
2022-10-19T12:43:59.000Z,1006.4
2022-10-19T12:44:32.630Z,1006.4
2022-10-19T12:47:05.258Z,1006.3
2022-10-19T12:47:46.000Z,1006.3
2022-10-19T12:48:20.484Z,1006.3
2022-10-19T12:49:03.000Z,1006.3
2022-10-19T12:52:08.807Z,1006.2
2022-10-19T12:53:25.001Z,1006.2
2022-10-19T12:54:07.000Z,1006.2
2022-10-19T12:54:41.434Z,1006.2
2022-10-19T12:57:12.855Z,1006.2
2022-10-19T12:58:27.818Z,1006.2
2022-10-19T12:59:43.038Z,1006.2
2022-10-19T13:00:24.000Z,1006.1
2022-10-19T13:00:58.248Z,1006.2
2022-10-19T13:01:41.000Z,1006.1
2022-10-19T13:04:46.829Z,1006.1
2022-10-19T13:06:03.022Z,1006.1
2022-10-19T13:07:19.216Z,1006.1
2022-10-19T13:08:35.658Z,1006
2022-10-19T13:09:51.850Z,1006
2022-10-19T13:10:34.000Z,1006
2022-10-19T13:11:08.058Z,1006
2022-10-19T13:13:06.000Z,1006
2022-10-19T13:13:40.431Z,1005.9
2022-10-19T13:16:12.571Z,1005.9
2022-10-19T13:16:54.000Z,1005.9
2022-10-19T13:17:28.021Z,1006
2022-10-19T13:18:10.000Z,1005.9
2022-10-19T13:20:42.000Z,1005.9
2022-10-19T13:21:16.616Z,1005.9
2022-10-19T13:21:59.000Z,1005.8
2022-10-19T13:23:15.000Z,1005.8
2022-10-19T13:26:20.412Z,1005.8
2022-10-19T13:27:35.618Z,1005.8
2022-10-19T13:28:18.000Z,1005.7
2022-10-19T13:28:51.817Z,1005.8
2022-10-19T13:31:24.195Z,1005.7
2022-10-19T13:32:06.000Z,1005.7
2022-10-19T13:32:40.390Z,1005.7
2022-10-19T13:33:22.000Z,1005.7
2022-10-19T13:36:28.727Z,1005.7
2022-10-19T13:37:11.000Z,1005.8
2022-10-19T13:37:45.169Z,1005.7
2022-10-19T13:38:27.000Z,1005.8
2022-10-19T13:39:43.000Z,1005.6
2022-10-19T13:41:00.000Z,1005.7
2022-10-19T13:44:04.904Z,1005.6
2022-10-19T13:44:47.000Z,1005.6
2022-10-19T13:45:21.348Z,1005.6
2022-10-19T13:47:53.484Z,1005.6
2022-10-19T13:49:09.925Z,1005.6
2022-10-19T13:49:52.000Z,1005.6
2022-10-19T13:50:26.117Z,1005.5
2022-10-19T13:51:07.000Z,1005.5
2022-10-19T13:52:22.000Z,1005.5
2022-10-19T13:53:38.000Z,1005.6
2022-10-19T13:54:53.000Z,1005.5
2022-10-19T13:56:09.000Z,1005.6
2022-10-19T13:57:25.000Z,1005.6
2022-10-19T14:00:31.506Z,1005.6
2022-10-19T14:01:47.699Z,1005.6
2022-10-19T14:02:30.000Z,1005.5
2022-10-19T14:03:03.893Z,1005.5
2022-10-19T14:03:46.000Z,1005.4
2022-10-19T14:06:19.000Z,1005.4
2022-10-19T14:06:52.474Z,1005.5
2022-10-19T14:08:51.000Z,1005.5
2022-10-19T14:09:24.861Z,1005.4
2022-10-19T14:11:57.248Z,1005.5
2022-10-19T14:13:12.708Z,1005.5
2022-10-19T14:13:55.000Z,1005.5
2022-10-19T14:14:28.651Z,1005.5
2022-10-19T14:16:27.000Z,1005.4
2022-10-19T14:17:01.287Z,1005.5
2022-10-19T14:18:59.000Z,1005.4
2022-10-19T14:19:33.678Z,1005.4
2022-10-19T14:20:14.000Z,1005.3
2022-10-19T14:21:29.000Z,1005.4
2022-10-19T14:22:44.000Z,1005.3
2022-10-19T14:25:49.500Z,1005.2
2022-10-19T14:26:32.000Z,1005.3
2022-10-19T14:27:05.943Z,1005.3
2022-10-19T14:29:38.334Z,1005.2
2022-10-19T14:30:54.275Z,1005.2
2022-10-19T14:31:37.000Z,1005.2
2022-10-19T14:32:10.718Z,1005.2
2022-10-19T14:34:42.857Z,1005.2
2022-10-19T14:35:59.050Z,1005.2
2022-10-19T14:36:41.000Z,1005.2
2022-10-19T14:37:15.244Z,1005.2
2022-10-19T14:39:14.000Z,1005.1
2022-10-19T14:39:47.631Z,1005.2
2022-10-19T14:40:29.000Z,1005.1
2022-10-19T14:41:45.000Z,1005.2
2022-10-19T14:43:01.000Z,1005.1
2022-10-19T14:44:18.000Z,1005.1
2022-10-19T14:45:34.000Z,1005
2022-10-19T14:46:50.000Z,1005
2022-10-19T14:48:06.000Z,1005
2022-10-19T14:51:11.667Z,1005.1
2022-10-19T14:51:52.000Z,1005
2022-10-19T14:52:26.626Z,1005.1
2022-10-19T14:53:07.000Z,1005
2022-10-19T14:55:39.000Z,1005
2022-10-19T14:56:13.249Z,1005
2022-10-19T14:58:45.880Z,1005
2022-10-19T14:59:28.000Z,1005
2022-10-19T15:00:02.078Z,1005
2022-10-19T15:00:44.000Z,1004.9
2022-10-19T15:03:17.000Z,1005
2022-10-19T15:03:50.410Z,1004.9
2022-10-19T15:06:23.040Z,1004.9
2022-10-19T15:07:39.243Z,1004.9
2022-10-19T15:08:55.425Z,1004.8
2022-10-19T15:09:36.000Z,1004.8
2022-10-19T15:10:11.377Z,1004.8
2022-10-19T15:10:53.000Z,1004.7
2022-10-19T15:13:58.974Z,1004.8
2022-10-19T15:15:15.167Z,1004.7
2022-10-19T15:15:57.000Z,1004.7
2022-10-19T15:16:31.361Z,1004.7
2022-10-19T15:19:04.016Z,1004.7
2022-10-19T15:20:19.228Z,1004.7
2022-10-19T15:21:35.284Z,1004.7
2022-10-19T15:22:16.000Z,1004.7
2022-10-19T15:22:50.504Z,1004.6
2022-10-19T15:25:22.152Z,1004.7
2022-10-19T15:26:38.102Z,1004.7
2022-10-19T15:27:54.537Z,1004.7
2022-10-19T15:29:10.488Z,1004.8
2022-10-19T15:30:26.943Z,1004.7
2022-10-19T15:31:09.000Z,1004.8
2022-10-19T15:31:43.125Z,1004.7
2022-10-19T15:34:15.262Z,1004.7
2022-10-19T15:34:58.000Z,1004.7
2022-10-19T15:35:31.703Z,1004.8
2022-10-19T15:36:14.000Z,1004.8
2022-10-19T15:39:20.037Z,1004.7
2022-10-19T15:40:01.000Z,1004.6
2022-10-19T15:40:35.247Z,1004.7
2022-10-19T15:41:18.000Z,1004.7
2022-10-19T15:43:50.000Z,1004.7
2022-10-19T15:44:24.076Z,1004.6
2022-10-19T15:46:22.000Z,1004.7
2022-10-19T15:46:56.214Z,1004.7
2022-10-19T15:48:53.000Z,1004.7
2022-10-19T15:49:27.869Z,1004.7
2022-10-19T15:50:08.000Z,1004.7
2022-10-19T15:52:39.000Z,1004.6
2022-10-19T15:53:13.522Z,1004.6
2022-10-19T15:55:45.654Z,1004.6